EDT,Max TemperatureF,Mean TemperatureF,Min TemperatureF,Max Dew PointF,MeanDew PointF,Min DewpointF,Max Humidity, Mean Humidity, Min Humidity, Max Sea Level PressureIn, Mean Sea Level PressureIn, Min Sea Level PressureIn, Max VisibilityMiles, Mean VisibilityMiles, Min VisibilityMiles, Max Wind SpeedMPH, Mean Wind SpeedMPH, Max Gust SpeedMPH,PrecipitationIn, CloudCover, Events, WindDirDegrees
2014-3-1,26,20,14,19,14,8,88,72,56,30.33,30.17,30.04,10,6,2,17,9,19,0.06,8,Snow,314
2014-3-2,20,12,3,10,6,-4,88,70,51,30.41,30.31,30.24,10,6,1,17,8,19,0.02,7,Snow,10
2014-3-3,14,4,-6,-5,-8,-10,82,62,42,30.53,30.48,30.42,10,10,10,13,3,15,0.00,1,,347
2014-3-4,21,11,1,7,0,-7,75,58,41,30.43,30.31,30.23,10,10,10,12,5,14,T,7,,196
2014-3-5,25,20,14,13,10,4,80,65,49,30.52,30.40,30.26,10,7,2,13,7,17,T,5,Snow,38
2014-3-6,31,20,8,12,8,4,80,63,46,30.51,30.35,30.18,10,10,10,12,6,14,0.00,0,,111
2014-3-7,42,26,10,29,18,7,92,69,45,30.14,30.02,29.93,10,10,7,14,7,16,T,1,Rain,187
2014-3-8,39,30,21,31,24,17,84,74,63,30.24,30.09,29.96,10,8,4,15,9,18,0.01,7,Rain,334
2014-3-9,37,24,11,29,19,10,92,70,47,30.25,30.10,29.83,10,10,8,22,11,29,0.00,0,,227
2014-3-10,49,43,36,35,31,29,76,67,58,29.83,29.70,29.62,10,9,8,20,11,25,0.00,1,,227
2014-3-11,52,43,33,35,33,31,92,70,48,29.76,29.70,29.67,10,8,4,16,5,19,0.07,3,Rain,342
2014-3-12,38,24,9,34,23,0,92,73,53,30.08,29.76,29.60,10,5,0,24,15,31,0.39,6,Fog-Rain-Snow,357
2014-3-13,26,12,-2,19,7,-6,91,71,52,30.19,30.09,29.94,10,10,10,17,7,24,0.00,2,,201
2014-3-14,48,37,25,32,28,20,81,67,53,29.91,29.72,29.59,10,10,10,29,17,39,0.00,2,,222
2014-3-15,38,33,27,30,23,10,76,61,46,30.30,30.04,29.79,10,10,10,18,12,24,0.00,6,,307
2014-3-16,27,19,10,10,4,-1,73,58,42,30.41,30.33,30.22,10,10,10,17,10,24,0.00,1,,45
2014-3-17,33,20,7,15,6,-3,73,56,39,30.20,30.03,29.91,10,10,10,13,7,18,0.00,0,,104
2014-3-18,44,32,20,32,23,13,77,66,54,30.01,29.94,29.82,10,10,10,17,7,22,0.00,0,,127
2014-3-19,43,39,34,41,35,30,96,86,76,29.90,29.71,29.59,10,6,1,23,11,30,0.35,8,Rain-Snow,211
2014-3-20,40,32,24,30,24,20,82,65,48,30.09,30.00,29.87,10,10,6,22,12,28,T,5,Snow,294
2014-3-21,45,33,20,40,28,17,92,74,55,30.08,29.94,29.73,10,9,4,17,7,23,0.21,2,Rain,140
2014-3-22,43,34,25,40,28,14,93,75,57,30.29,30.03,29.72,10,9,5,22,14,30,T,6,Rain,317
2014-3-23,28,21,14,13,8,6,67,57,46,30.43,30.38,30.29,10,10,10,20,10,24,0.00,2,,338
2014-3-24,31,22,12,13,9,6,84,62,39,30.39,30.28,30.10,10,10,6,18,8,23,T,3,Snow,243
2014-3-25,30,22,13,20,13,8,81,66,50,30.22,30.07,29.95,10,8,2,26,12,31,T,6,Snow,296
2014-3-26,34,22,9,17,12,6,88,65,41,30.37,30.27,30.11,10,10,10,16,6,20,T,2,,194
2014-3-27,47,40,33,39,29,16,85,66,47,30.09,29.87,29.58,10,9,5,26,13,32,0.09,8,Rain-Snow,175
2014-3-28,51,42,32,45,34,26,89,82,75,30.20,29.85,29.52,10,9,2,29,14,37,0.03,8,Rain-Snow,269
2014-3-29,40,34,27,30,28,24,89,74,59,30.22,30.18,30.13,10,9,2,20,8,25,T,6,Snow,28
2014-3-30,52,37,21,26,21,17,88,58,28,30.27,30.20,30.12,10,10,9,9,4,11,0.00,0,,331
2014-3-31,64,48,32,33,30,26,75,53,30,30.16,30.06,29.88,10,10,10,18,9,28,0.02,1,,155